sensor_id;sensor_type;location;lat;lon;timestamp;P1;durP1;ratioP1;P2;durP2;ratioP2
12665;SDS011;58531;59.050;17.416;2024-03-25T00:00:10;2.87;;;1.87;;
12665;SDS011;58531;59.050;17.416;2024-03-25T00:02:37;2.30;;;2.03;;
12665;SDS011;58531;59.050;17.416;2024-03-25T00:05:04;3.37;;;1.87;;
12665;SDS011;58531;59.050;17.416;2024-03-25T00:07:30;2.23;;;1.77;;
12665;SDS011;58531;59.050;17.416;2024-03-25T00:09:58;2.77;;;2.10;;
12665;SDS011;58531;59.050;17.416;2024-03-25T00:12:24;2.70;;;2.03;;
12665;SDS011;58531;59.050;17.416;2024-03-25T00:14:51;3.30;;;1.77;;
12665;SDS011;58531;59.050;17.416;2024-03-25T00:17:19;4.03;;;1.87;;
12665;SDS011;58531;59.050;17.416;2024-03-25T00:19:45;3.93;;;1.83;;
12665;SDS011;58531;59.050;17.416;2024-03-25T00:22:16;3.20;;;2.30;;
12665;SDS011;58531;59.050;17.416;2024-03-25T00:24:43;2.87;;;1.83;;
12665;SDS011;58531;59.050;17.416;2024-03-25T00:27:09;4.67;;;2.10;;
12665;SDS011;58531;59.050;17.416;2024-03-25T00:29:35;4.70;;;2.30;;
12665;SDS011;58531;59.050;17.416;2024-03-25T00:32:01;4.47;;;2.20;;
12665;SDS011;58531;59.050;17.416;2024-03-25T00:34:30;2.70;;;1.93;;
12665;SDS011;58531;59.050;17.416;2024-03-25T00:36:56;2.20;;;2.00;;
12665;SDS011;58531;59.050;17.416;2024-03-25T00:39:23;3.50;;;2.00;;
12665;SDS011;58531;59.050;17.416;2024-03-25T00:41:48;3.63;;;2.00;;
12665;SDS011;58531;59.050;17.416;2024-03-25T00:44:15;2.50;;;1.70;;
12665;SDS011;58531;59.050;17.416;2024-03-25T00:46:41;2.30;;;1.73;;
12665;SDS011;58531;59.050;17.416;2024-03-25T00:49:08;2.87;;;2.10;;
12665;SDS011;58531;59.050;17.416;2024-03-25T00:51:36;3.67;;;1.60;;
12665;SDS011;58531;59.050;17.416;2024-03-25T00:54:03;2.37;;;1.77;;
12665;SDS011;58531;59.050;17.416;2024-03-25T00:56:29;2.20;;;1.67;;
12665;SDS011;58531;59.050;17.416;2024-03-25T00:58:56;2.07;;;1.73;;
12665;SDS011;58531;59.050;17.416;2024-03-25T01:01:27;2.70;;;1.70;;
12665;SDS011;58531;59.050;17.416;2024-03-25T01:03:54;1.97;;;1.60;;
12665;SDS011;58531;59.050;17.416;2024-03-25T01:06:20;2.60;;;2.00;;
12665;SDS011;58531;59.050;17.416;2024-03-25T01:08:48;4.27;;;1.93;;
12665;SDS011;58531;59.050;17.416;2024-03-25T01:11:15;2.07;;;1.53;;
12665;SDS011;58531;59.050;17.416;2024-03-25T01:13:41;3.57;;;1.53;;
12665;SDS011;58531;59.050;17.416;2024-03-25T01:16:08;3.00;;;1.53;;
12665;SDS011;58531;59.050;17.416;2024-03-25T01:18:35;1.67;;;1.37;;
12665;SDS011;58531;59.050;17.416;2024-03-25T01:21:01;2.47;;;1.63;;
12665;SDS011;58531;59.050;17.416;2024-03-25T01:23:29;2.50;;;1.47;;
12665;SDS011;58531;59.050;17.416;2024-03-25T01:25:57;2.33;;;1.80;;
12665;SDS011;58531;59.050;17.416;2024-03-25T01:28:24;3.27;;;1.80;;
12665;SDS011;58531;59.050;17.416;2024-03-25T01:30:49;3.57;;;2.00;;
12665;SDS011;58531;59.050;17.416;2024-03-25T01:33:16;3.53;;;1.87;;
12665;SDS011;58531;59.050;17.416;2024-03-25T01:35:42;4.43;;;1.67;;
12665;SDS011;58531;59.050;17.416;2024-03-25T01:38:09;2.33;;;1.70;;
12665;SDS011;58531;59.050;17.416;2024-03-25T01:40:36;1.67;;;1.53;;
12665;SDS011;58531;59.050;17.416;2024-03-25T01:43:04;3.13;;;1.70;;
12665;SDS011;58531;59.050;17.416;2024-03-25T01:45:30;1.97;;;1.60;;
12665;SDS011;58531;59.050;17.416;2024-03-25T01:48:00;2.27;;;1.60;;
12665;SDS011;58531;59.050;17.416;2024-03-25T01:50:28;2.40;;;1.80;;
12665;SDS011;58531;59.050;17.416;2024-03-25T01:52:56;2.20;;;1.70;;
12665;SDS011;58531;59.050;17.416;2024-03-25T01:55:23;2.90;;;1.87;;
12665;SDS011;58531;59.050;17.416;2024-03-25T01:57:52;1.70;;;1.30;;
12665;SDS011;58531;59.050;17.416;2024-03-25T02:00:20;3.20;;;1.67;;
12665;SDS011;58531;59.050;17.416;2024-03-25T02:02:47;3.33;;;1.50;;
12665;SDS011;58531;59.050;17.416;2024-03-25T02:05:14;5.00;;;1.87;;
12665;SDS011;58531;59.050;17.416;2024-03-25T02:07:41;2.00;;;1.63;;
12665;SDS011;58531;59.050;17.416;2024-03-25T02:10:08;4.77;;;1.77;;
12665;SDS011;58531;59.050;17.416;2024-03-25T02:12:39;1.90;;;1.50;;
12665;SDS011;58531;59.050;17.416;2024-03-25T02:15:07;2.50;;;2.07;;
12665;SDS011;58531;59.050;17.416;2024-03-25T02:17:36;3.60;;;1.67;;
12665;SDS011;58531;59.050;17.416;2024-03-25T02:20:02;3.90;;;1.80;;
12665;SDS011;58531;59.050;17.416;2024-03-25T02:22:32;2.30;;;1.60;;
12665;SDS011;58531;59.050;17.416;2024-03-25T02:24:59;3.67;;;1.83;;
12665;SDS011;58531;59.050;17.416;2024-03-25T02:27:28;3.30;;;2.20;;
12665;SDS011;58531;59.050;17.416;2024-03-25T02:30:00;1.97;;;1.53;;
12665;SDS011;58531;59.050;17.416;2024-03-25T02:32:28;2.70;;;1.80;;
12665;SDS011;58531;59.050;17.416;2024-03-25T02:34:56;2.83;;;1.70;;
12665;SDS011;58531;59.050;17.416;2024-03-25T02:37:24;2.87;;;1.83;;
12665;SDS011;58531;59.050;17.416;2024-03-25T02:39:51;3.47;;;2.10;;
12665;SDS011;58531;59.050;17.416;2024-03-25T02:42:18;3.17;;;2.07;;
12665;SDS011;58531;59.050;17.416;2024-03-25T02:44:46;3.83;;;2.10;;
12665;SDS011;58531;59.050;17.416;2024-03-25T02:47:13;2.47;;;2.17;;
12665;SDS011;58531;59.050;17.416;2024-03-25T02:49:39;4.00;;;2.50;;
12665;SDS011;58531;59.050;17.416;2024-03-25T02:52:08;4.33;;;2.20;;
12665;SDS011;58531;59.050;17.416;2024-03-25T02:54:34;3.93;;;2.20;;
12665;SDS011;58531;59.050;17.416;2024-03-25T02:57:01;2.63;;;2.13;;
12665;SDS011;58531;59.050;17.416;2024-03-25T02:59:26;5.10;;;2.30;;
12665;SDS011;58531;59.050;17.416;2024-03-25T03:01:55;3.03;;;2.20;;
12665;SDS011;58531;59.050;17.416;2024-03-25T03:04:20;4.80;;;2.50;;
12665;SDS011;58531;59.050;17.416;2024-03-25T03:06:47;3.03;;;2.30;;
12665;SDS011;58531;59.050;17.416;2024-03-25T03:09:13;4.03;;;2.43;;
12665;SDS011;58531;59.050;17.416;2024-03-25T03:11:41;3.20;;;2.37;;
12665;SDS011;58531;59.050;17.416;2024-03-25T03:14:08;3.43;;;2.03;;
12665;SDS011;58531;59.050;17.416;2024-03-25T03:16:35;4.43;;;2.10;;
12665;SDS011;58531;59.050;17.416;2024-03-25T03:19:03;5.10;;;2.67;;
12665;SDS011;58531;59.050;17.416;2024-03-25T03:21:30;3.63;;;2.40;;
12665;SDS011;58531;59.050;17.416;2024-03-25T03:23:56;3.30;;;2.27;;
12665;SDS011;58531;59.050;17.416;2024-03-25T03:26:23;5.90;;;2.77;;
12665;SDS011;58531;59.050;17.416;2024-03-25T03:28:52;4.17;;;2.53;;
12665;SDS011;58531;59.050;17.416;2024-03-25T03:31:19;3.47;;;2.57;;
12665;SDS011;58531;59.050;17.416;2024-03-25T03:33:46;3.90;;;2.53;;
12665;SDS011;58531;59.050;17.416;2024-03-25T03:36:15;4.57;;;2.50;;
12665;SDS011;58531;59.050;17.416;2024-03-25T03:38:41;4.13;;;2.67;;
12665;SDS011;58531;59.050;17.416;2024-03-25T03:41:08;3.50;;;2.50;;
12665;SDS011;58531;59.050;17.416;2024-03-25T03:43:34;4.83;;;2.50;;
12665;SDS011;58531;59.050;17.416;2024-03-25T03:46:01;7.60;;;3.47;;
12665;SDS011;58531;59.050;17.416;2024-03-25T03:48:29;7.17;;;2.73;;
12665;SDS011;58531;59.050;17.416;2024-03-25T03:50:56;5.50;;;2.60;;
12665;SDS011;58531;59.050;17.416;2024-03-25T03:53:26;2.97;;;2.23;;
12665;SDS011;58531;59.050;17.416;2024-03-25T03:55:53;5.13;;;2.77;;
12665;SDS011;58531;59.050;17.416;2024-03-25T03:58:19;6.83;;;3.10;;
12665;SDS011;58531;59.050;17.416;2024-03-25T04:00:46;5.87;;;2.60;;
12665;SDS011;58531;59.050;17.416;2024-03-25T04:03:12;3.97;;;2.60;;
12665;SDS011;58531;59.050;17.416;2024-03-25T04:05:39;5.63;;;3.17;;
12665;SDS011;58531;59.050;17.416;2024-03-25T04:08:05;5.47;;;2.70;;
12665;SDS011;58531;59.050;17.416;2024-03-25T04:10:35;5.83;;;3.07;;
12665;SDS011;58531;59.050;17.416;2024-03-25T04:13:01;5.63;;;2.73;;
12665;SDS011;58531;59.050;17.416;2024-03-25T04:15:28;5.13;;;3.37;;
12665;SDS011;58531;59.050;17.416;2024-03-25T04:17:54;4.27;;;2.63;;
12665;SDS011;58531;59.050;17.416;2024-03-25T04:20:21;5.07;;;2.77;;
12665;SDS011;58531;59.050;17.416;2024-03-25T04:22:47;5.63;;;3.00;;
12665;SDS011;58531;59.050;17.416;2024-03-25T04:25:13;4.40;;;2.70;;
12665;SDS011;58531;59.050;17.416;2024-03-25T04:27:41;5.53;;;2.87;;
12665;SDS011;58531;59.050;17.416;2024-03-25T04:30:08;4.57;;;2.90;;
12665;SDS011;58531;59.050;17.416;2024-03-25T04:32:35;5.30;;;2.77;;
12665;SDS011;58531;59.050;17.416;2024-03-25T04:35:03;4.43;;;2.93;;
12665;SDS011;58531;59.050;17.416;2024-03-25T04:37:29;4.37;;;3.30;;
12665;SDS011;58531;59.050;17.416;2024-03-25T04:39:55;4.80;;;3.00;;
12665;SDS011;58531;59.050;17.416;2024-03-25T04:42:21;7.37;;;2.90;;
12665;SDS011;58531;59.050;17.416;2024-03-25T04:44:49;6.03;;;3.10;;
12665;SDS011;58531;59.050;17.416;2024-03-25T04:47:15;5.33;;;2.93;;
12665;SDS011;58531;59.050;17.416;2024-03-25T04:49:41;5.97;;;2.97;;
12665;SDS011;58531;59.050;17.416;2024-03-25T04:52:08;7.97;;;3.47;;
12665;SDS011;58531;59.050;17.416;2024-03-25T04:54:33;7.33;;;3.57;;
12665;SDS011;58531;59.050;17.416;2024-03-25T04:56:59;7.03;;;3.73;;
12665;SDS011;58531;59.050;17.416;2024-03-25T04:59:25;5.40;;;3.37;;
12665;SDS011;58531;59.050;17.416;2024-03-25T05:01:52;5.47;;;3.10;;
12665;SDS011;58531;59.050;17.416;2024-03-25T05:04:18;6.17;;;3.73;;
12665;SDS011;58531;59.050;17.416;2024-03-25T05:06:44;4.87;;;3.10;;
12665;SDS011;58531;59.050;17.416;2024-03-25T05:09:10;4.67;;;3.10;;
12665;SDS011;58531;59.050;17.416;2024-03-25T05:11:36;4.27;;;3.17;;
12665;SDS011;58531;59.050;17.416;2024-03-25T05:14:02;5.43;;;3.47;;
12665;SDS011;58531;59.050;17.416;2024-03-25T05:16:28;4.47;;;3.20;;
12665;SDS011;58531;59.050;17.416;2024-03-25T05:18:55;5.40;;;3.40;;
12665;SDS011;58531;59.050;17.416;2024-03-25T05:21:21;5.23;;;3.30;;
12665;SDS011;58531;59.050;17.416;2024-03-25T05:23:47;8.27;;;3.43;;
12665;SDS011;58531;59.050;17.416;2024-03-25T05:26:12;5.43;;;3.27;;
12665;SDS011;58531;59.050;17.416;2024-03-25T05:28:38;3.93;;;3.10;;
12665;SDS011;58531;59.050;17.416;2024-03-25T05:31:07;4.90;;;3.37;;
12665;SDS011;58531;59.050;17.416;2024-03-25T05:33:33;4.70;;;3.33;;
12665;SDS011;58531;59.050;17.416;2024-03-25T05:36:01;4.13;;;3.00;;
12665;SDS011;58531;59.050;17.416;2024-03-25T05:38:27;5.50;;;3.53;;
12665;SDS011;58531;59.050;17.416;2024-03-25T05:40:54;5.93;;;3.23;;
12665;SDS011;58531;59.050;17.416;2024-03-25T05:43:20;4.70;;;3.70;;
12665;SDS011;58531;59.050;17.416;2024-03-25T05:45:52;4.80;;;3.17;;
12665;SDS011;58531;59.050;17.416;2024-03-25T05:48:18;5.30;;;3.50;;
12665;SDS011;58531;59.050;17.416;2024-03-25T05:50:44;4.37;;;3.00;;
12665;SDS011;58531;59.050;17.416;2024-03-25T05:53:12;4.13;;;2.93;;
12665;SDS011;58531;59.050;17.416;2024-03-25T05:55:38;3.13;;;2.83;;
12665;SDS011;58531;59.050;17.416;2024-03-25T05:58:04;3.17;;;2.50;;
12665;SDS011;58531;59.050;17.416;2024-03-25T06:00:30;2.90;;;2.53;;
12665;SDS011;58531;59.050;17.416;2024-03-25T06:02:56;3.10;;;2.33;;
12665;SDS011;58531;59.050;17.416;2024-03-25T06:05:22;4.70;;;2.00;;
12665;SDS011;58531;59.050;17.416;2024-03-25T06:07:48;2.60;;;1.90;;
12665;SDS011;58531;59.050;17.416;2024-03-25T06:10:15;1.77;;;1.43;;
12665;SDS011;58531;59.050;17.416;2024-03-25T06:12:41;2.50;;;1.70;;
12665;SDS011;58531;59.050;17.416;2024-03-25T06:15:07;2.53;;;1.60;;
12665;SDS011;58531;59.050;17.416;2024-03-25T06:17:33;1.97;;;1.60;;
12665;SDS011;58531;59.050;17.416;2024-03-25T06:20:02;2.57;;;1.60;;
12665;SDS011;58531;59.050;17.416;2024-03-25T06:22:31;2.13;;;1.60;;
12665;SDS011;58531;59.050;17.416;2024-03-25T06:24:57;3.27;;;1.77;;
12665;SDS011;58531;59.050;17.416;2024-03-25T06:27:25;2.53;;;1.47;;
12665;SDS011;58531;59.050;17.416;2024-03-25T06:29:50;3.27;;;1.53;;
12665;SDS011;58531;59.050;17.416;2024-03-25T06:32:18;2.93;;;1.43;;
12665;SDS011;58531;59.050;17.416;2024-03-25T06:35:03;1.97;;;1.63;;
12665;SDS011;58531;59.050;17.416;2024-03-25T06:37:29;2.40;;;1.63;;
12665;SDS011;58531;59.050;17.416;2024-03-25T06:39:55;1.57;;;1.47;;
12665;SDS011;58531;59.050;17.416;2024-03-25T06:42:21;1.63;;;1.50;;
12665;SDS011;58531;59.050;17.416;2024-03-25T06:44:48;1.77;;;1.50;;
12665;SDS011;58531;59.050;17.416;2024-03-25T06:47:14;2.17;;;1.57;;
12665;SDS011;58531;59.050;17.416;2024-03-25T06:49:40;2.00;;;1.30;;
12665;SDS011;58531;59.050;17.416;2024-03-25T06:52:06;1.63;;;1.40;;
12665;SDS011;58531;59.050;17.416;2024-03-25T06:54:31;1.77;;;1.20;;
12665;SDS011;58531;59.050;17.416;2024-03-25T06:56:57;1.77;;;1.30;;
12665;SDS011;58531;59.050;17.416;2024-03-25T06:59:23;1.30;;;1.20;;
12665;SDS011;58531;59.050;17.416;2024-03-25T07:01:50;2.07;;;1.50;;
12665;SDS011;58531;59.050;17.416;2024-03-25T07:04:16;1.80;;;1.30;;
12665;SDS011;58531;59.050;17.416;2024-03-25T07:06:45;1.63;;;1.30;;
12665;SDS011;58531;59.050;17.416;2024-03-25T07:09:11;1.17;;;0.97;;
12665;SDS011;58531;59.050;17.416;2024-03-25T07:11:37;1.67;;;1.30;;
12665;SDS011;58531;59.050;17.416;2024-03-25T07:14:03;1.50;;;1.10;;
12665;SDS011;58531;59.050;17.416;2024-03-25T07:16:29;1.87;;;1.10;;
12665;SDS011;58531;59.050;17.416;2024-03-25T07:18:56;2.07;;;1.30;;
12665;SDS011;58531;59.050;17.416;2024-03-25T07:21:22;1.47;;;1.10;;
12665;SDS011;58531;59.050;17.416;2024-03-25T07:23:47;1.37;;;1.10;;
12665;SDS011;58531;59.050;17.416;2024-03-25T07:26:13;1.00;;;0.90;;
12665;SDS011;58531;59.050;17.416;2024-03-25T07:28:39;2.73;;;1.07;;
12665;SDS011;58531;59.050;17.416;2024-03-25T07:31:05;1.60;;;1.20;;
12665;SDS011;58531;59.050;17.416;2024-03-25T07:33:31;1.77;;;1.20;;
12665;SDS011;58531;59.050;17.416;2024-03-25T07:35:58;1.27;;;0.90;;
12665;SDS011;58531;59.050;17.416;2024-03-25T07:38:24;1.50;;;1.13;;
12665;SDS011;58531;59.050;17.416;2024-03-25T07:40:50;1.43;;;1.00;;
12665;SDS011;58531;59.050;17.416;2024-03-25T07:43:16;3.83;;;1.17;;
12665;SDS011;58531;59.050;17.416;2024-03-25T07:45:41;1.27;;;1.00;;
12665;SDS011;58531;59.050;17.416;2024-03-25T07:48:07;1.40;;;1.30;;
12665;SDS011;58531;59.050;17.416;2024-03-25T07:50:33;1.07;;;0.97;;
12665;SDS011;58531;59.050;17.416;2024-03-25T07:53:00;1.63;;;1.07;;
12665;SDS011;58531;59.050;17.416;2024-03-25T07:55:26;1.33;;;1.10;;
12665;SDS011;58531;59.050;17.416;2024-03-25T07:57:52;1.30;;;1.20;;
12665;SDS011;58531;59.050;17.416;2024-03-25T08:00:18;1.33;;;1.23;;
12665;SDS011;58531;59.050;17.416;2024-03-25T08:02:44;1.83;;;1.33;;
12665;SDS011;58531;59.050;17.416;2024-03-25T08:05:10;1.43;;;1.13;;
12665;SDS011;58531;59.050;17.416;2024-03-25T08:07:36;1.37;;;1.00;;
12665;SDS011;58531;59.050;17.416;2024-03-25T08:10:03;1.33;;;1.10;;
12665;SDS011;58531;59.050;17.416;2024-03-25T08:12:32;2.50;;;1.20;;
12665;SDS011;58531;59.050;17.416;2024-03-25T08:14:58;3.77;;;1.97;;
12665;SDS011;58531;59.050;17.416;2024-03-25T08:17:23;1.20;;;1.10;;
12665;SDS011;58531;59.050;17.416;2024-03-25T08:19:49;1.27;;;1.10;;
12665;SDS011;58531;59.050;17.416;2024-03-25T08:22:15;1.13;;;1.00;;
12665;SDS011;58531;59.050;17.416;2024-03-25T08:24:41;1.53;;;1.43;;
12665;SDS011;58531;59.050;17.416;2024-03-25T08:27:08;1.40;;;1.20;;
12665;SDS011;58531;59.050;17.416;2024-03-25T08:29:34;1.20;;;1.10;;
12665;SDS011;58531;59.050;17.416;2024-03-25T08:32:00;1.37;;;1.13;;
12665;SDS011;58531;59.050;17.416;2024-03-25T08:34:26;1.40;;;1.10;;
12665;SDS011;58531;59.050;17.416;2024-03-25T08:36:52;1.73;;;1.00;;
12665;SDS011;58531;59.050;17.416;2024-03-25T08:39:17;1.40;;;1.10;;
12665;SDS011;58531;59.050;17.416;2024-03-25T08:41:43;2.70;;;1.00;;
12665;SDS011;58531;59.050;17.416;2024-03-25T08:44:11;1.50;;;1.20;;
12665;SDS011;58531;59.050;17.416;2024-03-25T08:46:36;1.67;;;1.20;;
12665;SDS011;58531;59.050;17.416;2024-03-25T08:49:02;1.17;;;0.93;;
12665;SDS011;58531;59.050;17.416;2024-03-25T08:51:28;1.37;;;1.20;;
12665;SDS011;58531;59.050;17.416;2024-03-25T08:53:54;2.57;;;1.40;;
12665;SDS011;58531;59.050;17.416;2024-03-25T08:56:20;2.20;;;1.50;;
12665;SDS011;58531;59.050;17.416;2024-03-25T08:58:46;1.67;;;1.50;;
12665;SDS011;58531;59.050;17.416;2024-03-25T09:01:13;3.73;;;1.93;;
12665;SDS011;58531;59.050;17.416;2024-03-25T09:03:39;1.30;;;1.20;;
12665;SDS011;58531;59.050;17.416;2024-03-25T09:06:05;2.00;;;1.20;;
12665;SDS011;58531;59.050;17.416;2024-03-25T09:08:32;1.80;;;1.40;;
12665;SDS011;58531;59.050;17.416;2024-03-25T09:10:58;1.87;;;1.50;;
12665;SDS011;58531;59.050;17.416;2024-03-25T09:13:30;1.93;;;1.30;;
12665;SDS011;58531;59.050;17.416;2024-03-25T09:15:56;1.20;;;1.03;;
12665;SDS011;58531;59.050;17.416;2024-03-25T09:18:24;1.90;;;0.90;;
12665;SDS011;58531;59.050;17.416;2024-03-25T09:20:50;1.00;;;0.90;;
12665;SDS011;58531;59.050;17.416;2024-03-25T09:23:16;1.07;;;0.90;;
12665;SDS011;58531;59.050;17.416;2024-03-25T09:25:50;1.07;;;1.00;;
12665;SDS011;58531;59.050;17.416;2024-03-25T09:28:16;1.90;;;1.17;;
12665;SDS011;58531;59.050;17.416;2024-03-25T09:30:42;1.67;;;1.23;;
12665;SDS011;58531;59.050;17.416;2024-03-25T09:33:08;2.53;;;1.20;;
12665;SDS011;58531;59.050;17.416;2024-03-25T09:35:35;1.73;;;1.00;;
12665;SDS011;58531;59.050;17.416;2024-03-25T09:38:02;1.57;;;1.10;;
12665;SDS011;58531;59.050;17.416;2024-03-25T09:40:28;2.30;;;1.10;;
12665;SDS011;58531;59.050;17.416;2024-03-25T09:42:55;1.30;;;1.17;;
12665;SDS011;58531;59.050;17.416;2024-03-25T09:45:23;1.20;;;1.10;;
12665;SDS011;58531;59.050;17.416;2024-03-25T09:47:51;2.10;;;1.30;;
12665;SDS011;58531;59.050;17.416;2024-03-25T09:50:17;1.30;;;1.13;;
12665;SDS011;58531;59.050;17.416;2024-03-25T09:52:48;1.20;;;1.10;;
12665;SDS011;58531;59.050;17.416;2024-03-25T09:55:14;1.13;;;1.03;;
12665;SDS011;58531;59.050;17.416;2024-03-25T09:57:41;1.43;;;0.80;;
12665;SDS011;58531;59.050;17.416;2024-03-25T10:00:08;1.20;;;1.00;;
12665;SDS011;58531;59.050;17.416;2024-03-25T10:02:35;0.90;;;0.90;;
12665;SDS011;58531;59.050;17.416;2024-03-25T10:05:02;1.23;;;1.13;;
12665;SDS011;58531;59.050;17.416;2024-03-25T10:07:28;1.17;;;1.00;;
12665;SDS011;58531;59.050;17.416;2024-03-25T10:09:56;1.80;;;1.13;;
12665;SDS011;58531;59.050;17.416;2024-03-25T10:12:22;1.20;;;1.00;;
12665;SDS011;58531;59.050;17.416;2024-03-25T10:14:47;1.33;;;0.80;;
12665;SDS011;58531;59.050;17.416;2024-03-25T10:17:13;1.07;;;0.90;;
12665;SDS011;58531;59.050;17.416;2024-03-25T10:19:39;1.70;;;1.07;;
12665;SDS011;58531;59.050;17.416;2024-03-25T10:22:05;1.10;;;0.90;;
12665;SDS011;58531;59.050;17.416;2024-03-25T10:24:38;2.63;;;1.00;;
12665;SDS011;58531;59.050;17.416;2024-03-25T10:27:09;1.07;;;0.87;;
12665;SDS011;58531;59.050;17.416;2024-03-25T10:29:36;1.37;;;0.70;;
12665;SDS011;58531;59.050;17.416;2024-03-25T10:32:02;1.37;;;1.00;;
12665;SDS011;58531;59.050;17.416;2024-03-25T10:34:28;1.70;;;1.00;;
12665;SDS011;58531;59.050;17.416;2024-03-25T10:36:56;1.03;;;0.80;;
12665;SDS011;58531;59.050;17.416;2024-03-25T10:39:24;2.70;;;1.23;;
12665;SDS011;58531;59.050;17.416;2024-03-25T10:41:53;1.27;;;0.80;;
12665;SDS011;58531;59.050;17.416;2024-03-25T10:44:22;1.03;;;0.90;;
12665;SDS011;58531;59.050;17.416;2024-03-25T10:46:50;1.07;;;0.90;;
12665;SDS011;58531;59.050;17.416;2024-03-25T10:49:31;1.93;;;0.90;;
12665;SDS011;58531;59.050;17.416;2024-03-25T10:52:00;1.20;;;0.80;;
12665;SDS011;58531;59.050;17.416;2024-03-25T10:54:26;3.27;;;0.80;;
12665;SDS011;58531;59.050;17.416;2024-03-25T10:56:56;1.20;;;0.80;;
12665;SDS011;58531;59.050;17.416;2024-03-25T10:59:25;1.00;;;0.70;;
12665;SDS011;58531;59.050;17.416;2024-03-25T11:01:52;1.53;;;0.93;;
12665;SDS011;58531;59.050;17.416;2024-03-25T11:04:18;2.57;;;0.80;;
12665;SDS011;58531;59.050;17.416;2024-03-25T11:06:44;0.73;;;0.73;;
12665;SDS011;58531;59.050;17.416;2024-03-25T11:09:10;0.80;;;0.80;;
12665;SDS011;58531;59.050;17.416;2024-03-25T11:11:47;0.70;;;0.70;;
12665;SDS011;58531;59.050;17.416;2024-03-25T11:14:15;1.50;;;0.80;;
12665;SDS011;58531;59.050;17.416;2024-03-25T11:16:42;1.30;;;0.80;;
12665;SDS011;58531;59.050;17.416;2024-03-25T11:19:10;1.07;;;0.93;;
12665;SDS011;58531;59.050;17.416;2024-03-25T11:21:36;0.90;;;0.90;;
12665;SDS011;58531;59.050;17.416;2024-03-25T11:24:06;1.57;;;0.80;;
12665;SDS011;58531;59.050;17.416;2024-03-25T11:26:32;2.60;;;0.90;;
12665;SDS011;58531;59.050;17.416;2024-03-25T11:28:58;1.83;;;0.70;;
12665;SDS011;58531;59.050;17.416;2024-03-25T11:31:25;0.87;;;0.87;;
12665;SDS011;58531;59.050;17.416;2024-03-25T11:33:52;0.70;;;0.70;;
12665;SDS011;58531;59.050;17.416;2024-03-25T11:36:18;1.00;;;0.80;;
12665;SDS011;58531;59.050;17.416;2024-03-25T11:38:45;1.13;;;0.87;;
12665;SDS011;58531;59.050;17.416;2024-03-25T11:41:11;1.20;;;1.10;;
12665;SDS011;58531;59.050;17.416;2024-03-25T11:43:37;1.50;;;1.00;;
12665;SDS011;58531;59.050;17.416;2024-03-25T11:46:06;1.10;;;0.87;;
12665;SDS011;58531;59.050;17.416;2024-03-25T11:48:32;1.10;;;0.80;;
12665;SDS011;58531;59.050;17.416;2024-03-25T11:51:00;1.10;;;0.83;;
12665;SDS011;58531;59.050;17.416;2024-03-25T11:53:26;1.50;;;1.27;;
12665;SDS011;58531;59.050;17.416;2024-03-25T11:55:51;2.10;;;1.07;;
12665;SDS011;58531;59.050;17.416;2024-03-25T11:58:17;1.07;;;0.77;;
12665;SDS011;58531;59.050;17.416;2024-03-25T12:00:44;0.97;;;0.90;;
12665;SDS011;58531;59.050;17.416;2024-03-25T12:03:10;1.00;;;0.90;;
12665;SDS011;58531;59.050;17.416;2024-03-25T12:05:39;0.97;;;0.87;;
12665;SDS011;58531;59.050;17.416;2024-03-25T12:08:06;0.90;;;0.90;;
12665;SDS011;58531;59.050;17.416;2024-03-25T12:10:33;0.90;;;0.90;;
12665;SDS011;58531;59.050;17.416;2024-03-25T12:13:18;0.93;;;0.83;;
12665;SDS011;58531;59.050;17.416;2024-03-25T12:15:44;0.87;;;0.80;;
12665;SDS011;58531;59.050;17.416;2024-03-25T12:18:10;1.10;;;1.00;;
12665;SDS011;58531;59.050;17.416;2024-03-25T12:20:37;2.10;;;1.00;;
12665;SDS011;58531;59.050;17.416;2024-03-25T12:23:03;1.33;;;0.80;;
12665;SDS011;58531;59.050;17.416;2024-03-25T12:25:31;1.00;;;0.80;;
12665;SDS011;58531;59.050;17.416;2024-03-25T12:27:57;1.27;;;1.10;;
12665;SDS011;58531;59.050;17.416;2024-03-25T12:30:23;2.07;;;0.90;;
12665;SDS011;58531;59.050;17.416;2024-03-25T12:32:50;0.80;;;0.80;;
12665;SDS011;58531;59.050;17.416;2024-03-25T12:35:16;0.87;;;0.80;;
12665;SDS011;58531;59.050;17.416;2024-03-25T12:37:43;1.23;;;0.90;;
12665;SDS011;58531;59.050;17.416;2024-03-25T12:40:14;1.70;;;0.90;;
12665;SDS011;58531;59.050;17.416;2024-03-25T12:42:51;1.97;;;1.07;;
12665;SDS011;58531;59.050;17.416;2024-03-25T12:45:17;1.83;;;0.87;;
12665;SDS011;58531;59.050;17.416;2024-03-25T12:47:43;1.83;;;1.13;;
12665;SDS011;58531;59.050;17.416;2024-03-25T12:50:09;1.23;;;1.03;;
12665;SDS011;58531;59.050;17.416;2024-03-25T12:52:35;1.10;;;1.00;;
12665;SDS011;58531;59.050;17.416;2024-03-25T12:55:01;1.50;;;1.00;;
12665;SDS011;58531;59.050;17.416;2024-03-25T12:57:31;1.70;;;0.90;;
12665;SDS011;58531;59.050;17.416;2024-03-25T12:59:57;1.27;;;0.93;;
12665;SDS011;58531;59.050;17.416;2024-03-25T13:02:24;1.13;;;0.97;;
12665;SDS011;58531;59.050;17.416;2024-03-25T13:04:50;1.00;;;0.90;;
12665;SDS011;58531;59.050;17.416;2024-03-25T13:07:15;1.40;;;1.20;;
12665;SDS011;58531;59.050;17.416;2024-03-25T13:09:41;1.03;;;0.90;;
12665;SDS011;58531;59.050;17.416;2024-03-25T13:12:07;0.97;;;0.87;;
12665;SDS011;58531;59.050;17.416;2024-03-25T13:14:35;1.13;;;1.00;;
12665;SDS011;58531;59.050;17.416;2024-03-25T13:17:00;1.33;;;1.03;;
12665;SDS011;58531;59.050;17.416;2024-03-25T13:19:26;1.03;;;1.00;;
12665;SDS011;58531;59.050;17.416;2024-03-25T13:21:52;1.93;;;1.00;;
12665;SDS011;58531;59.050;17.416;2024-03-25T13:24:18;1.83;;;1.10;;
12665;SDS011;58531;59.050;17.416;2024-03-25T13:26:44;0.73;;;0.73;;
12665;SDS011;58531;59.050;17.416;2024-03-25T13:29:10;1.10;;;0.90;;
12665;SDS011;58531;59.050;17.416;2024-03-25T13:31:37;1.10;;;0.93;;
12665;SDS011;58531;59.050;17.416;2024-03-25T13:34:03;1.30;;;0.80;;
12665;SDS011;58531;59.050;17.416;2024-03-25T13:36:29;1.27;;;1.03;;
12665;SDS011;58531;59.050;17.416;2024-03-25T13:38:55;1.40;;;1.00;;
12665;SDS011;58531;59.050;17.416;2024-03-25T13:41:20;1.20;;;0.93;;
12665;SDS011;58531;59.050;17.416;2024-03-25T13:43:47;0.90;;;0.90;;
12665;SDS011;58531;59.050;17.416;2024-03-25T13:46:12;3.10;;;1.20;;
12665;SDS011;58531;59.050;17.416;2024-03-25T13:48:40;1.83;;;1.13;;
12665;SDS011;58531;59.050;17.416;2024-03-25T13:51:06;1.43;;;0.93;;
12665;SDS011;58531;59.050;17.416;2024-03-25T13:53:31;1.47;;;1.10;;
12665;SDS011;58531;59.050;17.416;2024-03-25T13:55:57;1.77;;;1.10;;
12665;SDS011;58531;59.050;17.416;2024-03-25T13:58:24;1.00;;;0.90;;
12665;SDS011;58531;59.050;17.416;2024-03-25T14:00:50;2.33;;;1.00;;
12665;SDS011;58531;59.050;17.416;2024-03-25T14:03:15;4.63;;;1.10;;
12665;SDS011;58531;59.050;17.416;2024-03-25T14:05:43;2.00;;;1.40;;
12665;SDS011;58531;59.050;17.416;2024-03-25T14:08:09;1.10;;;1.00;;
12665;SDS011;58531;59.050;17.416;2024-03-25T14:10:35;0.80;;;0.80;;
12665;SDS011;58531;59.050;17.416;2024-03-25T14:13:01;1.30;;;1.00;;
12665;SDS011;58531;59.050;17.416;2024-03-25T14:15:26;1.20;;;1.00;;
12665;SDS011;58531;59.050;17.416;2024-03-25T14:17:52;1.30;;;1.17;;
12665;SDS011;58531;59.050;17.416;2024-03-25T14:20:20;1.60;;;1.07;;
12665;SDS011;58531;59.050;17.416;2024-03-25T14:22:48;1.13;;;1.00;;
12665;SDS011;58531;59.050;17.416;2024-03-25T14:25:13;1.17;;;1.07;;
12665;SDS011;58531;59.050;17.416;2024-03-25T14:27:40;1.40;;;1.00;;
12665;SDS011;58531;59.050;17.416;2024-03-25T14:30:06;1.03;;;0.90;;